Afton, Wisconsin
Current Conditions -  °F | °C
As of 7:45 AM on Friday 31 Oct 2014 (Local Time) from KJVL Reporting Station
Overcast Overcast  
Wind Chill: 24°   Ceiling: 4200
Heat Index: 36°   Visibility: 10mi
Dew Point: 27°   Wind: 22mph
Humidity: 70%   Direction: 340°NNW
Pressure: 30.18"   Gusts: 29mph
Location:  42.6°N, 89.07°W
Report Text: KJVL 311245Z 34019G25KT 10SM OVC042 02/M03 A3018
Loading
Personal Weather Stations






























Interactive Weather Map
Tropical Storm Tracking
New forecast layout! Learn more

10-Day Weather Forecast

Advertisements
Track Severe Weather on mobile